Time;durP1;ratioP1;P1;durP2;ratioP2;P2;SDS_P1;SDS_P2;PMS_P1;PMS_P2;Temp;Humidity;BMP_temperature;BMP_pressure;BME280_temperature;BME280_humidity;BME280_pressure;Samples;Min_cycle;Max_cycle;Signal;HPM_P1;HPM_P2
2021/01/04 00:01:13;;;;;;;3.03;1.60;;;20.60;49.30;;;;;;5226544;28;20491;-80
2021/01/04 00:04:02;;;;;;;2.33;1.48;;;20.60;49.30;;;;;;5209419;28;20194;-78
2021/01/04 00:07:00;;;;;;;2.33;1.30;;;20.60;49.30;;;;;;5226081;28;20040;-80
2021/01/04 00:09:33;;;;;;;1.02;0.90;;;20.60;49.20;;;;;;5227309;28;20024;-79
2021/01/04 00:12:14;;;;;;;2.10;1.13;;;20.60;49.30;;;;;;5236723;28;20534;-78
2021/01/04 00:14:48;;;;;;;1.95;1.17;;;20.60;49.40;;;;;;5246359;28;20063;-78
2021/01/04 00:17:30;;;;;;;1.60;1.20;;;20.60;49.20;;;;;;5231777;28;20033;-79
2021/01/04 00:20:19;;;;;;;1.75;1.10;;;20.60;49.30;;;;;;5238010;28;20426;-79
2021/01/04 00:23:07;;;;;;;2.08;1.20;;;20.70;49.90;;;;;;5244090;28;20032;-79
2021/01/04 00:25:56;;;;;;;1.70;1.20;;;20.60;49.20;;;;;;5248367;28;20031;-79
2021/01/04 00:28:28;;;;;;;3.22;1.33;;;20.60;49.30;;;;;;5229705;28;20063;-79
2021/01/04 00:31:07;;;;;;;1.92;1.50;;;20.70;49.30;;;;;;5209329;28;20124;-80
2021/01/04 00:33:39;;;;;;;1.70;1.10;;;20.70;49.30;;;;;;5228391;28;20119;-80
2021/01/04 00:36:29;;;;;;;1.88;1.15;;;20.60;49.20;;;;;;5209915;28;20036;-79
2021/01/04 00:39:07;;;;;;;2.25;1.17;;;20.60;49.20;;;;;;5210377;28;20246;-79
2021/01/04 00:41:41;;;;;;;2.03;1.23;;;20.60;49.30;;;;;;5226494;28;20041;-79
2021/01/04 00:44:21;;;;;;;3.27;1.10;;;20.60;49.20;;;;;;5230310;28;20036;-80
2021/01/04 00:46:57;;;;;;;2.88;1.08;;;20.60;49.50;;;;;;5243180;28;20271;-80
2021/01/04 00:49:30;;;;;;;1.50;1.10;;;20.60;49.60;;;;;;5209622;28;20029;-80
2021/01/04 00:52:08;;;;;;;1.52;1.17;;;20.60;49.50;;;;;;5241902;28;20517;-79
2021/01/04 00:55:02;;;;;;;1.70;1.25;;;20.60;49.60;;;;;;5246500;28;20029;-80
2021/01/04 00:57:35;;;;;;;2.33;1.17;;;20.60;49.70;;;;;;5226275;28;20090;-80
2021/01/04 01:00:16;;;;;;;2.90;1.13;;;20.60;49.40;;;;;;5227322;28;20025;-81
2021/01/04 01:03:11;;;;;;;1.85;1.02;;;20.70;49.60;;;;;;5211155;28;20112;-80
2021/01/04 01:06:02;;;;;;;1.80;1.30;;;20.70;49.50;;;;;;5235993;28;20024;-80
2021/01/04 01:08:34;;;;;;;2.38;1.10;;;20.60;49.50;;;;;;5247285;28;20060;-81
2021/01/04 01:11:11;;;;;;;1.73;1.10;;;20.60;49.80;;;;;;5242306;28;20584;-79
2021/01/04 01:13:54;;;;;;;3.03;1.15;;;20.60;49.80;;;;;;5225268;28;20041;-78
2021/01/04 01:16:47;;;;;;;2.65;1.05;;;20.60;49.70;;;;;;5221003;28;20676;-79
2021/01/04 01:19:43;;;;;;;3.83;1.20;;;20.60;49.70;;;;;;5238976;28;20028;-79
2021/01/04 01:22:35;;;;;;;3.17;0.95;;;20.60;49.60;;;;;;5207651;28;20060;-78
2021/01/04 01:25:14;;;;;;;1.65;1.05;;;20.60;49.70;;;;;;5233469;28;20024;-79
2021/01/04 01:27:44;;;;;;;1.75;1.10;;;20.60;49.80;;;;;;5224765;28;20040;-79
2021/01/04 01:30:32;;;;;;;2.00;1.23;;;20.60;49.80;;;;;;5241449;28;20024;-79
2021/01/04 01:33:23;;;;;;;1.92;0.93;;;20.60;49.90;;;;;;5229865;28;20049;-79
2021/01/04 01:36:02;;;;;;;1.52;1.00;;;20.70;49.70;;;;;;5245884;28;20060;-79
2021/01/04 01:38:41;;;;;;;2.97;0.93;;;20.70;49.80;;;;;;5224312;28;20067;-79
2021/01/04 01:41:39;;;;;;;2.75;1.40;;;20.60;49.60;;;;;;5230827;28;20084;-79
2021/01/04 01:44:10;;;;;;;1.52;1.15;;;20.60;49.70;;;;;;5235920;28;20063;-79
2021/01/04 01:46:48;;;;;;;1.92;0.85;;;20.60;49.60;;;;;;5231475;28;20056;-78
2021/01/04 01:49:35;;;;;;;1.55;0.98;;;20.60;49.80;;;;;;5241349;28;20044;-79
2021/01/04 01:52:36;;;;;;;1.65;1.10;;;20.60;49.60;;;;;;5212016;28;20037;-79
2021/01/04 01:55:37;;;;;;;1.77;1.02;;;20.60;49.60;;;;;;5241261;28;20023;-78
2021/01/04 01:58:29;;;;;;;1.00;0.77;;;20.60;49.60;;;;;;5244214;28;20168;-79
2021/01/04 02:01:11;;;;;;;1.80;0.90;;;20.60;49.60;;;;;;5228514;28;20032;-79
2021/01/04 02:04:02;;;;;;;2.67;1.17;;;20.60;49.80;;;;;;5232637;28;20033;-79
2021/01/04 02:06:46;;;;;;;1.73;1.10;;;20.60;49.60;;;;;;5212643;28;20067;-79
2021/01/04 02:09:20;;;;;;;1.30;1.00;;;20.60;49.50;;;;;;5233086;28;20050;-79
2021/01/04 02:12:11;;;;;;;2.22;0.80;;;20.60;49.60;;;;;;5239265;28;20080;-79
2021/01/04 02:14:59;;;;;;;1.42;0.95;;;20.60;49.60;;;;;;5229347;28;20523;-79
2021/01/04 02:17:49;;;;;;;1.30;0.90;;;20.60;49.60;;;;;;5195783;28;20440;-80
2021/01/04 02:20:53;;;;;;;2.20;0.95;;;20.60;49.60;;;;;;5228196;28;20500;-78
2021/01/04 02:23:46;;;;;;;1.13;0.80;;;20.60;49.80;;;;;;5247583;28;20041;-79
2021/01/04 02:26:21;;;;;;;1.25;0.80;;;20.60;49.50;;;;;;5229399;28;20036;-80
2021/01/04 02:29:03;;;;;;;1.33;0.82;;;20.60;49.50;;;;;;5238041;28;20121;-78
2021/01/04 02:31:35;;;;;;;0.98;0.77;;;20.60;49.50;;;;;;5216440;28;20033;-80
2021/01/04 02:34:09;;;;;;;0.93;0.70;;;20.60;49.60;;;;;;5237963;28;20024;-79
2021/01/04 02:36:44;;;;;;;1.23;0.88;;;20.60;49.60;;;;;;5238138;28;20412;-80
2021/01/04 02:39:21;;;;;;;0.80;0.80;;;20.70;49.60;;;;;;5228463;28;20033;-80
2021/01/04 02:41:52;;;;;;;1.73;0.82;;;20.60;49.50;;;;;;5228755;28;20029;-80
2021/01/04 02:44:24;;;;;;;1.42;0.73;;;20.60;49.50;;;;;;5229753;28;20029;-79
2021/01/04 02:47:06;;;;;;;2.85;0.90;;;20.70;49.80;;;;;;5231985;28;20032;-79
2021/01/04 02:49:53;;;;;;;1.30;0.80;;;20.70;49.80;;;;;;5229276;28;20040;-79
2021/01/04 02:52:55;;;;;;;1.90;0.88;;;20.70;49.70;;;;;;5206774;28;20120;-79
2021/01/04 02:55:27;;;;;;;1.30;0.60;;;20.70;49.60;;;;;;5207787;28;20072;-79
2021/01/04 02:58:36;;;;;;;1.33;0.90;;;20.70;49.10;;;;;;5197529;28;20024;-79
2021/01/04 03:01:15;;;;;;;1.88;1.00;;;20.70;49.60;;;;;;5248102;28;20044;-79
2021/01/04 03:03:46;;;;;;;2.63;0.70;;;20.70;49.50;;;;;;5221418;28;20495;-78
2021/01/04 03:06:22;;;;;;;1.10;0.80;;;20.60;49.60;;;;;;5210714;28;20041;-80
2021/01/04 03:08:53;;;;;;;0.90;0.60;;;20.70;49.60;;;;;;5204654;28;21547;-79
2021/01/04 03:11:23;;;;;;;4.80;0.82;;;20.70;49.70;;;;;;5246221;28;20115;-79
2021/01/04 03:14:08;;;;;;;1.98;1.00;;;20.70;50.00;;;;;;5230279;28;20475;-79
2021/01/04 03:16:42;;;;;;;1.67;0.70;;;20.70;50.00;;;;;;5247158;28;20043;-80
2021/01/04 03:19:15;;;;;;;1.17;0.70;;;20.70;49.90;;;;;;5247050;28;20501;-78
2021/01/04 03:21:59;;;;;;;1.05;0.80;;;20.70;49.80;;;;;;5230296;28;20036;-79
2021/01/04 03:24:30;;;;;;;1.95;0.55;;;20.70;49.80;;;;;;5242120;28;20078;-80
2021/01/04 03:27:06;;;;;;;1.05;0.60;;;20.70;49.90;;;;;;5250120;28;20028;-80
2021/01/04 03:29:37;;;;;;;1.85;0.90;;;20.70;49.90;;;;;;5234258;28;20029;-81
2021/01/04 03:32:07;;;;;;;1.35;0.65;;;20.70;49.80;;;;;;5226086;28;20067;-80
2021/01/04 03:34:38;;;;;;;0.80;0.63;;;20.70;50.00;;;;;;5211416;28;20029;-80
2021/01/04 03:37:08;;;;;;;1.05;0.60;;;20.70;49.90;;;;;;5211966;28;20780;-79
2021/01/04 03:39:40;;;;;;;1.35;0.73;;;20.70;50.00;;;;;;5228625;28;20078;-81
2021/01/04 03:42:11;;;;;;;1.13;0.50;;;20.70;49.80;;;;;;5224158;28;20119;-79
2021/01/04 03:44:42;;;;;;;1.00;0.80;;;20.70;50.00;;;;;;5248472;28;20067;-80
2021/01/04 03:47:12;;;;;;;2.10;0.60;;;20.70;49.90;;;;;;5246077;28;20025;-79
2021/01/04 03:49:43;;;;;;;2.22;0.52;;;20.70;49.70;;;;;;5231568;28;20403;-79
2021/01/04 03:52:13;;;;;;;0.70;0.50;;;20.70;49.70;;;;;;5212442;28;20091;-79
2021/01/04 03:54:44;;;;;;;1.05;0.60;;;20.70;49.80;;;;;;5227685;28;20021;-80
2021/01/04 03:57:14;;;;;;;1.23;0.50;;;20.70;49.80;;;;;;5244441;28;20028;-80
2021/01/04 03:59:45;;;;;;;1.17;0.70;;;20.70;49.80;;;;;;5229527;28;20017;-79
2021/01/04 04:02:15;;;;;;;0.73;0.43;;;20.70;50.30;;;;;;5234087;28;20029;-79
2021/01/04 04:04:46;;;;;;;1.80;0.43;;;20.70;50.00;;;;;;5210478;28;20053;-78
2021/01/04 04:07:16;;;;;;;6.95;0.60;;;20.70;50.10;;;;;;5228465;28;20040;-79
2021/01/04 04:09:47;;;;;;;0.90;0.50;;;20.70;50.20;;;;;;5247478;28;20021;-80
2021/01/04 04:12:18;;;;;;;1.77;0.60;;;20.70;49.80;;;;;;5239617;28;20040;-79
2021/01/04 04:14:48;;;;;;;5.45;0.70;;;20.70;49.70;;;;;;5229919;28;20399;-79
2021/01/04 04:17:19;;;;;;;2.42;0.60;;;20.70;50.00;;;;;;5229109;28;20033;-79
2021/01/04 04:19:50;;;;;;;3.17;0.50;;;20.80;50.40;;;;;;5228205;28;20020;-79
2021/01/04 04:22:20;;;;;;;12.95;0.68;;;20.90;50.60;;;;;;5210782;28;20036;-79
2021/01/04 04:24:51;;;;;;;3.22;0.55;;;20.90;50.50;;;;;;5234485;28;20411;-80
2021/01/04 04:27:21;;;;;;;9.13;0.80;;;20.80;50.60;;;;;;5243204;28;20036;-79
2021/01/04 04:29:52;;;;;;;3.45;0.60;;;20.70;51.10;;;;;;5227548;28;20037;-78
2021/01/04 04:32:23;;;;;;;2.08;0.50;;;20.70;50.90;;;;;;5237005;28;20037;-80
2021/01/04 04:34:54;;;;;;;7.40;0.60;;;20.60;51.10;;;;;;5219235;28;20059;-78
2021/01/04 04:37:24;;;;;;;1.38;0.60;;;20.60;51.00;;;;;;5246125;28;20525;-80
2021/01/04 04:39:55;;;;;;;2.88;0.60;;;20.60;51.20;;;;;;5220209;28;20116;-80
2021/01/04 04:42:25;;;;;;;7.15;0.60;;;20.60;51.20;;;;;;5233698;28;20041;-79
2021/01/04 04:45:00;;;;;;;6.18;0.50;;;20.70;51.20;;;;;;5231634;28;20028;-79
2021/01/04 04:47:57;;;;;;;8.10;0.77;;;20.70;50.70;;;;;;5230567;28;20669;-80
2021/01/04 04:50:48;;;;;;;12.35;0.60;;;20.70;50.80;;;;;;5226450;28;20428;-79
2021/01/04 04:53:40;;;;;;;4.95;0.70;;;20.70;50.60;;;;;;5207292;28;20037;-80
2021/01/04 04:56:31;;;;;;;1.00;0.57;;;20.70;50.50;;;;;;5207018;28;20025;-80
2021/01/04 04:59:34;;;;;;;2.05;0.40;;;20.70;50.30;;;;;;5207204;28;20041;-79
2021/01/04 05:02:06;;;;;;;0.52;0.43;;;20.70;50.00;;;;;;5221083;28;20032;-79
2021/01/04 05:04:41;;;;;;;1.13;0.40;;;20.60;49.80;;;;;;5220789;28;20039;-80
2021/01/04 05:07:11;;;;;;;0.50;0.38;;;20.60;49.80;;;;;;5229163;28;20037;-81
2021/01/04 05:09:45;;;;;;;1.88;0.40;;;20.60;49.80;;;;;;5222206;28;20510;-81
2021/01/04 05:12:16;;;;;;;0.77;0.30;;;20.60;49.70;;;;;;5204785;28;20467;-80
2021/01/04 05:14:59;;;;;;;1.35;0.40;;;20.60;49.60;;;;;;5239042;28;20108;-79
2021/01/04 05:17:56;;;;;;;0.57;0.50;;;20.60;49.60;;;;;;5229270;28;20128;-80
2021/01/04 05:20:47;;;;;;;0.38;0.38;;;20.60;49.60;;;;;;5218994;28;20044;-80
2021/01/04 05:23:36;;;;;;;3.05;0.30;;;20.60;49.40;;;;;;5229181;28;20040;-79
2021/01/04 05:26:37;;;;;;;5.10;0.45;;;20.60;49.60;;;;;;5251450;28;20028;-78
2021/01/04 05:29:29;;;;;;;5.10;0.38;;;20.60;49.50;;;;;;5232777;28;20051;-79
2021/01/04 05:32:05;;;;;;;2.08;0.40;;;20.60;50.00;;;;;;5247087;28;20059;-80
2021/01/04 05:34:42;;;;;;;;;;;20.60;50.20;;;;;;5217185;28;20029;-78
2021/01/04 05:37:16;;;;;;;0.52;0.35;;;20.60;50.20;;;;;;5233931;28;20310;-79
2021/01/04 05:40:11;;;;;;;0.52;0.30;;;20.60;50.00;;;;;;5237151;28;20025;-78
2021/01/04 05:42:53;;;;;;;1.33;0.70;;;20.60;50.10;;;;;;5229110;28;20041;-79
2021/01/04 05:45:30;;;;;;;1.52;0.30;;;20.50;50.30;;;;;;5244230;28;20052;-79
2021/01/04 05:48:06;;;;;;;2.28;0.40;;;20.50;50.30;;;;;;5229773;28;20078;-80
2021/01/04 05:50:49;;;;;;;0.40;0.30;;;20.50;50.20;;;;;;5247301;28;20436;-80
2021/01/04 05:53:20;;;;;;;0.30;0.30;;;20.50;50.40;;;;;;5230253;28;20063;-78
2021/01/04 05:55:58;;;;;;;1.67;0.40;;;20.50;50.40;;;;;;5229715;28;20482;-79
2021/01/04 05:58:31;;;;;;;0.38;0.38;;;20.50;50.10;;;;;;5246252;28;20064;-79
2021/01/04 06:01:12;;;;;;;0.60;0.30;;;20.50;50.20;;;;;;5249603;28;20029;-78
2021/01/04 06:03:42;;;;;;;1.80;0.40;;;20.50;50.10;;;;;;5235372;28;20045;-79
2021/01/04 06:06:25;;;;;;;0.45;0.30;;;20.60;50.10;;;;;;5236067;28;20039;-78
2021/01/04 06:09:04;;;;;;;8.15;0.50;;;20.60;50.20;;;;;;5229097;28;20458;-79
2021/01/04 06:11:45;;;;;;;0.40;0.30;;;20.60;50.40;;;;;;5228572;28;20534;-79
2021/01/04 06:14:15;;;;;;;0.85;0.30;;;20.60;50.40;;;;;;5229273;28;20555;-79
2021/01/04 06:16:46;;;;;;;2.05;0.30;;;20.60;50.40;;;;;;5237420;28;20097;-80
2021/01/04 06:19:18;;;;;;;0.43;0.28;;;20.60;50.30;;;;;;5249700;28;20074;-78
2021/01/04 06:21:49;;;;;;;0.90;0.30;;;20.60;50.30;;;;;;5229982;28;20029;-79
2021/01/04 06:24:24;;;;;;;1.75;0.32;;;20.60;49.90;;;;;;5227054;28;20134;-78
2021/01/04 06:26:57;;;;;;;1.48;0.35;;;20.50;50.40;;;;;;5242412;28;20037;-79
2021/01/04 06:29:33;;;;;;;0.40;0.40;;;20.50;50.40;;;;;;5230095;28;20028;-79
2021/01/04 06:32:04;;;;;;;2.95;0.40;;;20.50;50.40;;;;;;5237276;28;20064;-80
2021/01/04 06:34:36;;;;;;;3.97;0.30;;;20.50;50.70;;;;;;5231830;28;20039;-80
2021/01/04 06:37:16;;;;;;;4.13;0.45;;;20.60;50.30;;;;;;5229399;28;20078;-78
2021/01/04 06:40:06;;;;;;;7.63;0.38;;;20.60;50.50;;;;;;5212609;28;20021;-78
2021/01/04 06:42:41;;;;;;;1.27;0.30;;;20.60;50.50;;;;;;5246189;28;20045;-79
2021/01/04 06:45:32;;;;;;;0.80;0.38;;;20.50;50.60;;;;;;5245394;28;20751;-79
2021/01/04 06:48:23;;;;;;;3.70;0.30;;;20.50;50.40;;;;;;5247303;28;20494;-79
2021/01/04 06:51:05;;;;;;;1.13;0.30;;;20.50;50.70;;;;;;5246804;28;20035;-78
2021/01/04 06:54:05;;;;;;;0.73;0.35;;;20.50;50.00;;;;;;5231020;28;20418;-78
2021/01/04 06:56:47;;;;;;;0.32;0.22;;;20.40;50.70;;;;;;5229461;28;20029;-79
2021/01/04 06:59:18;;;;;;;1.65;0.40;;;20.50;50.60;;;;;;5211801;28;20037;-79
2021/01/04 07:02:26;;;;;;;2.70;0.30;;;20.50;50.30;;;;;;5243159;28;20412;-79
2021/01/04 07:05:29;;;;;;;2.00;0.40;;;20.60;50.50;;;;;;5238800;28;20044;-79
2021/01/04 07:08:24;;;;;;;10.70;1.00;;;20.60;50.20;;;;;;5229616;28;20089;-80
2021/01/04 07:11:32;;;;;;;9.85;0.85;;;20.60;50.20;;;;;;5214109;28;20082;-81
2021/01/04 07:14:05;;;;;;;5.57;0.50;;;20.70;50.40;;;;;;5212133;28;20131;-79
2021/01/04 07:16:45;;;;;;;3.30;0.50;;;20.80;50.70;;;;;;5227804;28;20037;-78
2021/01/04 07:19:41;;;;;;;2.15;0.40;;;20.80;48.50;;;;;;5211958;28;20392;-80
2021/01/04 07:22:37;;;;;;;2.63;0.38;;;20.60;49.60;;;;;;5220162;28;20102;-80
2021/01/04 07:25:12;;;;;;;0.93;0.40;;;20.60;50.10;;;;;;5247761;28;20441;-80
2021/01/04 07:27:51;;;;;;;1.00;0.30;;;20.50;50.70;;;;;;5225847;28;20040;-78
2021/01/04 07:30:46;;;;;;;0.75;0.30;;;20.60;50.60;;;;;;5212482;28;20032;-77
2021/01/04 07:33:25;;;;;;;1.00;0.40;;;20.60;49.70;;;;;;5218189;28;20033;-78
2021/01/04 07:35:57;;;;;;;0.82;0.40;;;20.60;50.20;;;;;;5206967;28;20049;-78
2021/01/04 07:39:05;;;;;;;2.33;0.50;;;20.60;49.40;;;;;;5188811;28;20041;-78
2021/01/04 07:41:41;;;;;;;7.88;0.75;;;20.60;49.90;;;;;;5216285;28;20027;-79
2021/01/04 07:44:42;;;;;;;6.60;0.70;;;20.40;49.80;;;;;;5233328;28;20013;-78
2021/01/04 07:47:39;;;;;;;8.25;0.65;;;20.30;46.70;;;;;;5233155;28;20036;-79
2021/01/04 07:50:48;;;;;;;1.63;0.80;;;19.70;44.40;;;;;;5215922;28;20079;-78
2021/01/04 07:53:50;;;;;;;2.47;0.50;;;19.40;44.70;;;;;;5225342;28;20471;-79
2021/01/04 07:56:52;;;;;;;3.35;0.75;;;19.00;46.00;;;;;;5225723;28;20075;-77
2021/01/04 07:59:44;;;;;;;7.38;1.02;;;19.00;46.80;;;;;;5229168;28;20052;-81
2021/01/04 08:02:34;;;;;;;6.30;1.65;;;19.60;52.50;;;;;;5230097;28;20043;-81
2021/01/04 08:05:53;;;;;;;6.88;1.10;;;20.00;51.80;;;;;;5225506;28;20039;-83
2021/01/04 08:08:55;;;;;;;8.82;1.25;;;20.20;51.30;;;;;;5225940;28;20052;-81
2021/01/04 08:12:16;;;;;;;5.82;1.00;;;20.60;52.20;;;;;;5238567;28;20021;-81
2021/01/04 08:15:02;;;;;;;4.45;1.45;;;20.90;51.90;;;;;;5207586;28;20032;-81
2021/01/04 08:18:05;;;;;;;7.78;1.25;;;21.10;52.10;;;;;;5211914;28;20090;-83
2021/01/04 08:20:36;;;;;;;7.88;1.20;;;21.20;52.30;;;;;;5215117;28;20119;-82
2021/01/04 08:23:12;;;;;;;6.10;1.05;;;21.30;52.80;;;;;;5230463;28;20099;-82
2021/01/04 08:25:54;;;;;;;2.85;0.80;;;21.40;52.10;;;;;;5224695;28;21892;-82
2021/01/04 08:28:36;;;;;;;3.42;1.13;;;21.50;51.50;;;;;;5205789;28;20044;-79
2021/01/04 08:31:31;;;;;;;3.58;1.00;;;21.50;52.40;;;;;;5226788;28;20399;-82
2021/01/04 08:34:04;;;;;;;7.20;0.82;;;21.50;52.30;;;;;;5222915;28;20411;-82
2021/01/04 08:36:55;;;;;;;2.85;0.70;;;21.50;52.00;;;;;;5201103;28;20030;-82
2021/01/04 08:39:26;;;;;;;4.20;0.75;;;21.50;51.90;;;;;;5213519;28;20422;-82
2021/01/04 08:42:10;;;;;;;1.40;0.63;;;21.70;51.50;;;;;;5226806;28;20029;-81
2021/01/04 08:44:54;;;;;;;2.17;0.60;;;21.90;50.70;;;;;;5210930;28;20025;-79
2021/01/04 08:47:36;;;;;;;1.67;0.70;;;22.20;49.70;;;;;;5228463;28;20045;-82
2021/01/04 08:50:23;;;;;;;2.97;1.10;;;22.50;48.90;;;;;;5198255;28;20626;-82
2021/01/04 08:52:55;;;;;;;3.42;0.80;;;22.80;47.90;;;;;;5237426;28;20121;-83
2021/01/04 08:55:28;;;;;;;3.30;0.70;;;23.00;47.10;;;;;;5225165;28;20021;-82
2021/01/04 08:58:38;;;;;;;2.47;0.55;;;23.10;46.80;;;;;;5226648;28;20040;-84
2021/01/04 09:01:24;;;;;;;6.78;0.80;;;23.20;46.40;;;;;;5224983;28;20037;-80
2021/01/04 09:04:05;;;;;;;2.78;0.90;;;23.20;46.60;;;;;;5193301;28;20037;-79
2021/01/04 09:06:42;;;;;;;1.27;0.63;;;23.20;46.80;;;;;;5214332;28;20029;-81
2021/01/04 09:09:17;;;;;;;4.00;1.00;;;23.20;47.10;;;;;;5241433;28;20482;-79
2021/01/04 09:12:01;;;;;;;5.47;0.68;;;23.20;47.20;;;;;;5225323;28;20056;-78
2021/01/04 09:14:44;;;;;;;5.63;0.73;;;23.20;47.60;;;;;;5227239;28;21614;-79
2021/01/04 09:17:33;;;;;;;6.20;0.60;;;23.40;47.60;;;;;;5230807;28;20059;-80
2021/01/04 09:20:09;;;;;;;2.63;0.70;;;23.40;47.90;;;;;;5232063;28;20013;-77
2021/01/04 09:22:39;;;;;;;1.02;0.57;;;23.50;47.80;;;;;;5224413;28;20511;-77
2021/01/04 09:25:28;;;;;;;2.50;0.70;;;23.50;47.80;;;;;;5222526;28;20021;-78
2021/01/04 09:27:58;;;;;;;2.35;0.50;;;23.60;48.30;;;;;;5211960;28;20043;-77
2021/01/04 09:30:29;;;;;;;1.80;0.60;;;23.60;48.00;;;;;;5224548;28;20462;-78
2021/01/04 09:33:05;;;;;;;5.35;0.65;;;23.60;48.00;;;;;;5236897;28;20041;-77
2021/01/04 09:35:35;;;;;;;3.42;0.50;;;23.80;48.10;;;;;;5218765;28;20643;-78
2021/01/04 09:38:19;;;;;;;4.78;0.60;;;23.80;47.80;;;;;;5226290;28;20021;-79
2021/01/04 09:41:09;;;;;;;3.55;0.60;;;23.70;48.10;;;;;;5228071;28;20045;-78
2021/01/04 09:43:40;;;;;;;6.28;0.52;;;23.80;48.00;;;;;;5222380;28;20518;-79
2021/01/04 09:46:29;;;;;;;6.82;0.50;;;23.80;48.20;;;;;;5224662;28;20065;-79
2021/01/04 09:49:01;;;;;;;1.95;0.50;;;23.90;48.00;;;;;;5227900;28;20035;-78
2021/01/04 09:51:35;;;;;;;2.60;0.70;;;23.90;48.00;;;;;;5233235;28;20041;-77
2021/01/04 09:54:07;;;;;;;1.98;0.43;;;24.00;47.60;;;;;;5218316;28;20028;-77
2021/01/04 09:56:38;;;;;;;6.35;0.60;;;23.90;47.70;;;;;;5241070;28;20041;-77
2021/01/04 09:59:11;;;;;;;6.95;0.50;;;23.90;47.70;;;;;;5233082;28;20107;-78
2021/01/04 10:01:51;;;;;;;5.10;0.50;;;23.90;47.90;;;;;;5229225;28;20035;-81
2021/01/04 10:04:30;;;;;;;13.45;0.73;;;23.90;48.00;;;;;;5235527;28;20031;-79
2021/01/04 10:07:04;;;;;;;2.65;0.47;;;24.10;47.30;;;;;;5211059;28;20033;-76
2021/01/04 10:09:35;;;;;;;5.22;0.60;;;24.10;46.90;;;;;;5227706;28;20479;-79
2021/01/04 10:12:07;;;;;;;1.17;0.45;;;24.10;46.70;;;;;;5200072;28;20037;-80
2021/01/04 10:14:37;;;;;;;3.65;0.57;;;24.10;47.10;;;;;;5223025;28;20029;-77
2021/01/04 10:17:08;;;;;;;4.40;0.40;;;24.20;46.90;;;;;;5225032;28;20036;-77
2021/01/04 10:19:51;;;;;;;4.50;0.50;;;24.10;46.90;;;;;;5223664;28;20012;-80
2021/01/04 10:22:34;;;;;;;7.88;0.52;;;24.20;47.00;;;;;;5245096;28;20058;-78
2021/01/04 10:25:10;;;;;;;3.80;0.70;;;24.10;47.30;;;;;;5228302;28;20036;-77
2021/01/04 10:27:41;;;;;;;4.30;0.40;;;24.20;47.20;;;;;;5229947;28;20063;-79
2021/01/04 10:30:12;;;;;;;10.10;0.90;;;24.10;47.40;;;;;;5240973;28;20071;-79
2021/01/04 10:32:43;;;;;;;2.25;0.50;;;24.10;47.60;;;;;;5225942;28;20036;-78
2021/01/04 10:35:21;;;;;;;7.35;0.85;;;24.10;47.50;;;;;;5219599;28;20451;-79
2021/01/04 10:37:52;;;;;;;10.63;0.57;;;24.10;47.50;;;;;;5238530;28;20033;-78
2021/01/04 10:40:23;;;;;;;4.07;0.73;;;24.10;47.70;;;;;;5231001;28;20036;-79
2021/01/04 10:43:05;;;;;;;4.57;0.45;;;24.10;47.60;;;;;;5243530;28;20434;-79
2021/01/04 10:45:38;;;;;;;1.55;0.30;;;24.30;47.40;;;;;;5229588;28;20065;-80
2021/01/04 10:48:15;;;;;;;5.15;0.47;;;24.30;47.30;;;;;;5228702;28;20045;-81
2021/01/04 10:50:47;;;;;;;10.65;0.60;;;24.30;47.40;;;;;;5213725;28;20564;-80
2021/01/04 10:53:37;;;;;;;4.50;0.70;;;24.50;46.80;;;;;;5208641;28;20048;-81
2021/01/04 10:56:16;;;;;;;2.38;0.50;;;24.70;45.80;;;;;;5228278;28;20016;-80
2021/01/04 10:58:47;;;;;;;3.50;0.82;;;24.70;45.40;;;;;;5233260;28;20051;-81
2021/01/04 11:01:21;;;;;;;2.88;0.60;;;24.80;45.00;;;;;;5247790;28;20029;-83
2021/01/04 11:03:56;;;;;;;2.53;0.68;;;24.80;44.80;;;;;;5223079;28;20020;-81
2021/01/04 11:06:37;;;;;;;3.00;0.55;;;25.00;44.40;;;;;;5238264;28;20131;-80
2021/01/04 11:09:14;;;;;;;1.50;0.68;;;24.90;44.20;;;;;;5238878;28;20035;-82
2021/01/04 11:11:49;;;;;;;1.85;0.50;;;24.90;44.20;;;;;;5234876;28;21761;-81
2021/01/04 11:14:20;;;;;;;;;;;25.00;44.20;;;;;;5248011;28;20078;-81
2021/01/04 11:16:53;;;;;;;2.10;0.60;;;25.00;44.10;;;;;;5214075;28;19913;-83
2021/01/04 11:19:27;;;;;;;3.55;0.70;;;24.90;44.60;;;;;;5246347;28;20021;-80
2021/01/04 11:22:43;;;;;;;0.57;0.40;;;24.90;44.40;;;;;;5225956;28;20040;-79
2021/01/04 11:25:17;;;;;;;2.75;0.47;;;24.90;44.10;;;;;;5231400;28;20116;-80
2021/01/04 11:27:50;;;;;;;1.25;0.52;;;25.10;43.60;;;;;;5221179;28;20036;-79
2021/01/04 11:30:34;;;;;;;4.03;0.60;;;25.10;43.40;;;;;;5225266;28;20039;-78
2021/01/04 11:33:50;;;;;;;3.35;0.60;;;25.10;43.40;;;;;;5218047;28;20044;-79
2021/01/04 11:36:20;;;;;;;1.40;0.47;;;25.00;43.60;;;;;;5227609;28;20086;-81
2021/01/04 11:38:51;;;;;;;2.63;0.60;;;24.80;44.10;;;;;;5232193;28;20017;-80
2021/01/04 11:41:22;;;;;;;2.45;0.65;;;24.70;44.80;;;;;;5213935;28;20395;-80
2021/01/04 11:43:52;;;;;;;0.50;0.40;;;24.70;45.50;;;;;;5228950;28;20025;-79
2021/01/04 11:46:23;;;;;;;1.80;0.50;;;24.70;45.10;;;;;;5232892;28;20039;-80
2021/01/04 11:48:56;;;;;;;1.45;0.60;;;24.60;45.30;;;;;;5231890;28;20021;-79
2021/01/04 11:51:27;;;;;;;1.95;0.60;;;24.70;45.30;;;;;;5242839;28;20450;-80
2021/01/04 11:53:58;;;;;;;3.83;0.60;;;24.70;45.10;;;;;;5229028;28;20183;-79
2021/01/04 11:56:29;;;;;;;3.97;0.90;;;24.70;45.10;;;;;;5222026;28;20025;-79
2021/01/04 11:58:59;;;;;;;5.40;0.63;;;25.00;44.60;;;;;;5229802;28;20013;-80
2021/01/04 12:01:34;;;;;;;1.98;0.60;;;25.10;44.20;;;;;;5232697;28;20024;-79
2021/01/04 12:04:05;;;;;;;3.88;0.68;;;25.10;44.50;;;;;;5230874;28;20126;-80
2021/01/04 12:06:36;;;;;;;2.40;0.57;;;25.10;44.50;;;;;;5237924;28;20032;-81
2021/01/04 12:09:08;;;;;;;1.95;0.65;;;25.00;44.80;;;;;;5180312;28;20021;-81
2021/01/04 12:11:39;;;;;;;1.98;0.50;;;25.00;44.70;;;;;;5227424;28;20033;-79
2021/01/04 12:14:10;;;;;;;1.92;0.60;;;25.00;45.00;;;;;;5202615;28;20021;-80
2021/01/04 12:16:40;;;;;;;4.82;0.60;;;25.00;45.00;;;;;;5194909;28;21021;-81
2021/01/04 12:19:11;;;;;;;2.58;0.60;;;25.00;45.20;;;;;;5212198;28;20025;-80
2021/01/04 12:21:42;;;;;;;3.50;0.57;;;25.00;45.30;;;;;;5213347;28;20033;-82
2021/01/04 12:24:12;;;;;;;5.00;0.70;;;24.90;45.40;;;;;;5249138;28;20025;-81
2021/01/04 12:26:48;;;;;;;3.67;0.70;;;24.90;45.60;;;;;;5228785;28;20025;-80
2021/01/04 12:29:18;;;;;;;2.42;0.45;;;25.10;45.00;;;;;;5216092;28;20467;-79
2021/01/04 12:31:49;;;;;;;3.63;0.40;;;25.00;45.20;;;;;;5238396;28;20109;-81
2021/01/04 12:34:19;;;;;;;3.08;0.63;;;24.90;45.80;;;;;;5239543;28;20104;-78
2021/01/04 12:36:50;;;;;;;4.30;0.50;;;24.90;46.00;;;;;;5226785;28;20035;-79
2021/01/04 12:39:20;;;;;;;4.63;0.60;;;24.90;46.20;;;;;;5232415;28;20028;-79
2021/01/04 12:41:51;;;;;;;5.25;0.45;;;24.90;46.00;;;;;;5210524;28;20017;-81
2021/01/04 12:44:21;;;;;;;5.45;0.60;;;24.90;46.20;;;;;;5239983;28;20032;-79
2021/01/04 12:46:52;;;;;;;4.85;0.60;;;24.80;46.20;;;;;;5249435;28;20491;-81
2021/01/04 12:49:23;;;;;;;6.05;0.80;;;24.70;46.60;;;;;;5243566;28;20100;-77
2021/01/04 12:51:58;;;;;;;4.30;0.50;;;24.70;46.60;;;;;;5227510;28;20029;-77
2021/01/04 12:54:30;;;;;;;3.95;0.50;;;24.60;46.70;;;;;;5240871;28;20024;-78
2021/01/04 12:57:04;;;;;;;2.15;0.57;;;24.60;46.70;;;;;;5228398;28;20033;-77
2021/01/04 12:59:39;;;;;;;9.07;0.50;;;24.60;46.60;;;;;;5208403;28;20017;-77
2021/01/04 13:02:09;;;;;;;;;;;24.70;46.80;;;;;;5232296;28;20410;-77
2021/01/04 13:04:41;;;;;;;1.92;0.43;;;24.70;46.80;;;;;;5222984;28;19915;-77
2021/01/04 13:07:12;;;;;;;3.92;0.50;;;24.70;46.90;;;;;;5222886;28;20384;-77
2021/01/04 13:09:43;;;;;;;6.20;0.40;;;24.70;47.10;;;;;;5224233;28;20040;-79
2021/01/04 13:12:13;;;;;;;8.73;0.60;;;24.90;46.70;;;;;;5188175;28;20568;-77
2021/01/04 13:14:47;;;;;;;4.32;0.60;;;24.90;47.00;;;;;;5209820;28;20388;-77
2021/01/04 13:17:17;;;;;;;2.47;0.40;;;24.80;47.10;;;;;;5199188;28;20514;-78
2021/01/04 13:19:48;;;;;;;4.88;0.40;;;24.70;47.10;;;;;;5221724;28;20029;-76
2021/01/04 13:22:19;;;;;;;6.35;0.40;;;24.70;47.40;;;;;;5206110;28;20033;-76
2021/01/04 13:24:49;;;;;;;5.43;0.70;;;24.70;47.00;;;;;;5221672;28;20475;-77
2021/01/04 13:27:20;;;;;;;5.78;0.70;;;24.70;47.10;;;;;;5202670;28;20037;-78
2021/01/04 13:29:52;;;;;;;1.40;0.35;;;24.70;47.10;;;;;;5221307;28;20025;-77
2021/01/04 13:32:22;;;;;;;5.35;0.30;;;24.70;47.10;;;;;;5218434;28;20038;-77
2021/01/04 13:34:53;;;;;;;2.95;0.30;;;24.70;47.10;;;;;;5218984;28;20036;-76
2021/01/04 13:37:23;;;;;;;0.70;0.40;;;24.70;47.20;;;;;;5207871;28;20029;-77
2021/01/04 13:39:54;;;;;;;6.68;0.65;;;24.80;46.70;;;;;;5236505;28;20025;-77
2021/01/04 13:42:24;;;;;;;2.55;0.57;;;24.90;46.30;;;;;;5213163;28;20029;-77
2021/01/04 13:44:55;;;;;;;2.78;0.65;;;25.10;45.60;;;;;;5194846;28;20091;-79
2021/01/04 13:47:25;;;;;;;3.22;0.57;;;25.10;44.40;;;;;;5189212;28;20094;-78
2021/01/04 13:49:56;;;;;;;7.68;0.40;;;25.30;44.70;;;;;;5208593;28;20391;-77